createdAt,value
2015-10-20T00:00:03.767Z,732.75
2015-10-20T00:00:16.972Z,732.72
2015-10-20T00:00:30.175Z,732.77
2015-10-20T00:00:43.394Z,732.77
2015-10-20T00:00:56.613Z,732.7
2015-10-20T00:01:09.832Z,732.74
2015-10-20T00:01:23.023Z,732.76
2015-10-20T00:01:36.273Z,732.75
2015-10-20T00:01:49.492Z,732.72
2015-10-20T00:02:02.726Z,732.73
2015-10-20T00:02:15.947Z,732.73
2015-10-20T00:02:29.213Z,732.74
2015-10-20T00:02:42.447Z,732.75
2015-10-20T00:02:55.713Z,732.78
2015-10-20T00:03:08.931Z,732.75
2015-10-20T00:03:22.137Z,732.75
2015-10-20T00:03:35.341Z,732.74
2015-10-20T00:03:48.544Z,732.72
2015-10-20T00:04:01.762Z,732.75
2015-10-20T00:04:14.981Z,732.73
2015-10-20T00:04:28.218Z,732.73
2015-10-20T00:04:41.436Z,732.72
2015-10-20T00:04:54.655Z,732.72
2015-10-20T00:05:07.874Z,732.73
2015-10-20T00:05:21.128Z,732.71
2015-10-20T00:05:34.378Z,732.72
2015-10-20T00:05:47.612Z,732.74
2015-10-20T00:06:00.831Z,732.7
2015-10-20T00:06:14.018Z,732.71
2015-10-20T00:06:27.224Z,732.69
2015-10-20T00:06:40.427Z,732.71
2015-10-20T00:06:53.630Z,732.74
2015-10-20T00:07:06.849Z,732.71
2015-10-20T00:07:20.055Z,732.69
2015-10-20T00:07:33.258Z,732.69
2015-10-20T00:07:46.461Z,732.72
2015-10-20T00:07:59.664Z,732.72
2015-10-20T00:08:12.883Z,732.71
2015-10-20T00:08:26.105Z,732.7
2015-10-20T00:08:39.308Z,732.73
2015-10-20T00:08:52.526Z,732.69
2015-10-20T00:09:05.776Z,732.69
2015-10-20T00:09:19.028Z,732.68
2015-10-20T00:09:32.216Z,732.74
2015-10-20T00:09:45.419Z,732.72
2015-10-20T00:09:58.607Z,732.69
2015-10-20T00:10:11.810Z,732.69
2015-10-20T00:10:25.031Z,732.71
2015-10-20T00:10:38.235Z,732.7
2015-10-20T00:10:51.485Z,732.67
2015-10-20T00:11:04.703Z,732.66
2015-10-20T00:11:17.906Z,732.71
2015-10-20T00:11:31.097Z,732.67
2015-10-20T00:11:44.316Z,732.68
2015-10-20T00:11:57.550Z,732.71
2015-10-20T00:12:10.769Z,732.68
2015-10-20T00:12:23.991Z,732.68
2015-10-20T00:12:37.241Z,732.69
2015-10-20T00:12:50.475Z,732.66
2015-10-20T00:13:03.694Z,732.64
2015-10-20T00:13:16.897Z,732.64
2015-10-20T00:13:30.102Z,732.67
2015-10-20T00:13:43.305Z,732.66
2015-10-20T00:13:56.539Z,732.62
2015-10-20T00:14:09.743Z,732.67
2015-10-20T00:14:22.949Z,732.66
2015-10-20T00:14:36.167Z,732.68
2015-10-20T00:14:49.371Z,732.65
2015-10-20T00:15:02.574Z,732.68
2015-10-20T00:15:15.808Z,732.65
2015-10-20T00:15:29.030Z,732.67
2015-10-20T00:15:42.249Z,732.69
2015-10-20T00:15:55.467Z,732.66
2015-10-20T00:16:08.717Z,732.67
2015-10-20T00:16:21.983Z,732.67
2015-10-20T00:16:35.266Z,732.66
2015-10-20T00:16:48.516Z,732.69
2015-10-20T00:17:01.719Z,732.67
2015-10-20T00:17:14.922Z,732.66
2015-10-20T00:17:28.129Z,732.66
2015-10-20T00:17:41.332Z,732.66
2015-10-20T00:17:54.550Z,732.64
2015-10-20T00:18:07.754Z,732.69
2015-10-20T00:18:20.957Z,732.64
2015-10-20T00:18:34.163Z,732.62
2015-10-20T00:18:47.366Z,732.61
2015-10-20T00:19:00.569Z,732.66
2015-10-20T00:19:13.788Z,732.62
2015-10-20T00:19:27.041Z,732.6
2015-10-20T00:19:40.260Z,732.6
2015-10-20T00:19:53.494Z,732.63
2015-10-20T00:20:06.791Z,732.64
2015-10-20T00:20:19.885Z,732.63
2015-10-20T00:20:33.074Z,732.65
2015-10-20T00:20:46.277Z,732.65
2015-10-20T00:20:59.496Z,732.65
2015-10-20T00:21:12.699Z,732.65
2015-10-20T00:21:25.918Z,732.65
2015-10-20T00:21:39.123Z,732.69
2015-10-20T00:21:52.326Z,732.67
2015-10-20T00:22:05.545Z,732.67
2015-10-20T00:22:18.779Z,732.63
2015-10-20T00:22:31.995Z,732.68
2015-10-20T00:22:45.245Z,732.63
2015-10-20T00:22:58.511Z,732.68
2015-10-20T00:23:11.714Z,732.65
2015-10-20T00:23:24.901Z,732.73
2015-10-20T00:23:38.107Z,732.68
2015-10-20T00:23:51.311Z,732.66
2015-10-20T00:24:04.529Z,732.67
2015-10-20T00:24:17.764Z,732.73
2015-10-20T00:24:30.985Z,732.71
2015-10-20T00:24:44.189Z,732.69
2015-10-20T00:24:57.376Z,732.69
2015-10-20T00:25:10.579Z,732.72
2015-10-20T00:25:23.798Z,732.68
2015-10-20T00:25:37.019Z,732.7
2015-10-20T00:25:50.237Z,732.68
2015-10-20T00:26:03.456Z,732.69
2015-10-20T00:26:16.706Z,732.71
2015-10-20T00:26:29.956Z,732.73
2015-10-20T00:26:43.162Z,732.66
2015-10-20T00:26:56.365Z,732.65
2015-10-20T00:27:09.569Z,732.66
2015-10-20T00:27:22.787Z,732.71
2015-10-20T00:27:35.993Z,732.71
2015-10-20T00:27:49.197Z,732.68
2015-10-20T00:28:02.400Z,732.71
2015-10-20T00:28:15.618Z,732.71
2015-10-20T00:28:28.853Z,732.69
2015-10-20T00:28:42.074Z,732.71
2015-10-20T00:28:55.308Z,732.71
2015-10-20T00:29:08.542Z,732.74
2015-10-20T00:29:21.792Z,732.74
2015-10-20T00:29:35.031Z,732.69
2015-10-20T00:29:48.328Z,732.77
2015-10-20T00:30:01.578Z,732.73
2015-10-20T00:30:14.859Z,732.76
2015-10-20T00:30:28.062Z,732.78
2015-10-20T00:30:41.267Z,732.75
2015-10-20T00:30:54.470Z,732.78
2015-10-20T00:31:07.783Z,732.76
2015-10-20T00:31:20.986Z,732.79
2015-10-20T00:31:34.048Z,732.76
2015-10-20T00:31:47.270Z,732.74
2015-10-20T00:32:00.473Z,732.77
2015-10-20T00:32:13.676Z,732.76
2015-10-20T00:32:26.895Z,732.79
2015-10-20T00:32:40.116Z,732.83
2015-10-20T00:32:53.335Z,732.8
2015-10-20T00:33:06.553Z,732.82
2015-10-20T00:33:19.788Z,732.81
2015-10-20T00:33:33.022Z,732.79
2015-10-20T00:33:46.259Z,732.81
2015-10-20T00:33:59.463Z,732.82
2015-10-20T00:34:12.681Z,732.84
2015-10-20T00:34:25.884Z,732.84
2015-10-20T00:34:39.091Z,732.82
2015-10-20T00:34:52.294Z,732.76
2015-10-20T00:35:05.497Z,732.82
2015-10-20T00:35:18.716Z,732.79
2015-10-20T00:35:31.794Z,732.78
2015-10-20T00:35:45.000Z,732.78
2015-10-20T00:35:58.203Z,732.81
2015-10-20T00:36:11.437Z,732.79
2015-10-20T00:36:24.656Z,732.79
2015-10-20T00:36:37.875Z,732.76
2015-10-20T00:36:51.112Z,732.82
2015-10-20T00:37:04.362Z,732.81
2015-10-20T00:37:17.581Z,732.8
2015-10-20T00:37:30.784Z,732.8
2015-10-20T00:37:43.989Z,732.81
2015-10-20T00:37:57.192Z,732.76
2015-10-20T00:38:10.411Z,732.85
2015-10-20T00:38:23.630Z,732.79
2015-10-20T00:38:36.833Z,732.82
2015-10-20T00:38:50.039Z,732.8
2015-10-20T00:39:03.273Z,732.83
2015-10-20T00:39:16.492Z,732.85
2015-10-20T00:39:29.695Z,732.85
2015-10-20T00:39:42.947Z,732.85
2015-10-20T00:39:56.197Z,732.82
2015-10-20T00:40:09.400Z,732.86
2015-10-20T00:40:22.604Z,732.88
2015-10-20T00:40:35.791Z,732.87
2015-10-20T00:40:48.998Z,732.84
2015-10-20T00:41:02.217Z,732.85
2015-10-20T00:41:15.404Z,732.86
2015-10-20T00:41:28.623Z,732.84
2015-10-20T00:41:41.842Z,732.89
2015-10-20T00:41:55.064Z,732.84
2015-10-20T00:42:08.282Z,732.87
2015-10-20T00:42:21.517Z,732.89
2015-10-20T00:42:34.736Z,732.85
2015-10-20T00:42:47.941Z,732.84
2015-10-20T00:43:01.159Z,732.84
2015-10-20T00:43:14.363Z,732.8
2015-10-20T00:43:27.566Z,732.83
2015-10-20T00:43:40.769Z,732.81
2015-10-20T00:43:53.975Z,732.8
2015-10-20T00:44:07.194Z,732.81
2015-10-20T00:44:20.412Z,732.88
2015-10-20T00:44:33.631Z,732.81
2015-10-20T00:44:46.853Z,732.82
2015-10-20T00:45:00.119Z,732.78
2015-10-20T00:45:13.369Z,732.81
2015-10-20T00:45:26.572Z,732.78
2015-10-20T00:45:39.759Z,732.8
2015-10-20T00:45:52.980Z,732.77
2015-10-20T00:46:06.199Z,732.76
2015-10-20T00:46:19.386Z,732.79
2015-10-20T00:46:32.574Z,732.77
2015-10-20T00:46:45.761Z,732.81
2015-10-20T00:46:58.999Z,732.8
2015-10-20T00:47:12.202Z,732.83
2015-10-20T00:47:25.264Z,732.79
2015-10-20T00:47:38.514Z,732.78
2015-10-20T00:47:51.767Z,732.82
2015-10-20T00:48:05.002Z,732.83
2015-10-20T00:48:18.205Z,732.81
2015-10-20T00:48:31.408Z,732.85
2015-10-20T00:48:44.455Z,732.79
2015-10-20T00:48:57.676Z,732.78
2015-10-20T00:49:10.880Z,732.8
2015-10-20T00:49:24.083Z,732.82
2015-10-20T00:49:37.286Z,732.83
2015-10-20T00:49:50.491Z,732.84
2015-10-20T00:50:03.694Z,732.8
2015-10-20T00:50:16.913Z,732.81
2015-10-20T00:50:30.132Z,732.8
2015-10-20T00:50:43.335Z,732.78
2015-10-20T00:50:56.556Z,732.77
2015-10-20T00:51:09.806Z,732.8
2015-10-20T00:51:23.041Z,732.79
2015-10-20T00:51:36.260Z,732.8
2015-10-20T00:51:49.447Z,732.82
2015-10-20T00:52:02.653Z,732.84
2015-10-20T00:52:15.856Z,732.79
2015-10-20T00:52:29.059Z,732.82
2015-10-20T00:52:42.263Z,732.8
2015-10-20T00:52:55.546Z,732.78
2015-10-20T00:53:08.780Z,732.77
2015-10-20T00:53:21.999Z,732.83
2015-10-20T00:53:35.218Z,732.82
2015-10-20T00:53:48.468Z,732.78
2015-10-20T00:54:01.705Z,732.81
2015-10-20T00:54:14.924Z,732.83
2015-10-20T00:54:28.127Z,732.8
2015-10-20T00:54:41.330Z,732.8
2015-10-20T00:54:54.535Z,732.8
2015-10-20T00:55:07.738Z,732.76
2015-10-20T00:55:20.941Z,732.78
2015-10-20T00:55:34.145Z,732.78
2015-10-20T00:55:47.363Z,732.78
2015-10-20T00:56:00.430Z,732.75
2015-10-20T00:56:13.649Z,732.79
2015-10-20T00:56:26.867Z,732.72
2015-10-20T00:56:40.133Z,732.75
2015-10-20T00:56:53.383Z,732.74
2015-10-20T00:57:06.635Z,732.77
2015-10-20T00:57:19.854Z,732.77
2015-10-20T00:57:33.057Z,732.73
2015-10-20T00:57:46.260Z,732.75
2015-10-20T00:57:59.466Z,732.71
2015-10-20T00:58:12.685Z,732.72
2015-10-20T00:58:25.888Z,732.76
2015-10-20T00:58:39.091Z,732.74
2015-10-20T00:58:52.310Z,732.72
2015-10-20T00:59:05.515Z,732.72
2015-10-20T00:59:18.718Z,732.69
2015-10-20T00:59:31.921Z,732.7
2015-10-20T00:59:45.140Z,732.69
2015-10-20T00:59:58.362Z,732.7
2015-10-20T01:00:11.580Z,732.7
2015-10-20T01:00:24.799Z,732.7
2015-10-20T01:00:38.034Z,732.69
2015-10-20T01:00:51.299Z,732.68
2015-10-20T01:01:04.505Z,732.7
2015-10-20T01:01:17.708Z,732.66
2015-10-20T01:01:30.912Z,732.68
2015-10-20T01:01:44.146Z,732.67
2015-10-20T01:01:57.349Z,732.68
2015-10-20T01:02:10.555Z,732.66
2015-10-20T01:02:23.758Z,732.64
2015-10-20T01:02:37.008Z,732.65
2015-10-20T01:02:50.196Z,732.68
2015-10-20T01:03:03.402Z,732.64
2015-10-20T01:03:16.621Z,732.66
2015-10-20T01:03:29.839Z,732.65
2015-10-20T01:03:43.058Z,732.67
2015-10-20T01:03:56.293Z,732.66
2015-10-20T01:04:09.545Z,732.67
2015-10-20T01:04:22.763Z,732.7
2015-10-20T01:04:35.951Z,732.67
2015-10-20T01:04:49.154Z,732.66
2015-10-20T01:05:02.360Z,732.64
2015-10-20T01:05:15.563Z,732.69
2015-10-20T01:05:28.766Z,732.66
2015-10-20T01:05:41.969Z,732.65
2015-10-20T01:05:55.204Z,732.69
2015-10-20T01:06:08.441Z,732.68
2015-10-20T01:06:21.644Z,732.66
2015-10-20T01:06:34.910Z,732.64
2015-10-20T01:06:48.160Z,732.65
2015-10-20T01:07:01.254Z,732.62
2015-10-20T01:07:14.490Z,732.65
2015-10-20T01:07:27.740Z,732.64
2015-10-20T01:07:40.943Z,732.65
2015-10-20T01:07:54.146Z,732.63
2015-10-20T01:08:07.352Z,732.65
2015-10-20T01:08:20.556Z,732.61
2015-10-20T01:08:33.759Z,732.62
2015-10-20T01:08:46.962Z,732.59
2015-10-20T01:09:00.024Z,732.6
2015-10-20T01:09:13.246Z,732.6
2015-10-20T01:09:26.434Z,732.62
2015-10-20T01:09:39.637Z,732.59
2015-10-20T01:09:52.855Z,732.57
2015-10-20T01:10:06.076Z,732.62
2015-10-20T01:10:19.326Z,732.57
2015-10-20T01:10:32.545Z,732.64
2015-10-20T01:10:45.795Z,732.61
2015-10-20T01:10:59.045Z,732.59
2015-10-20T01:11:12.251Z,732.61
2015-10-20T01:11:25.454Z,732.61
2015-10-20T01:11:38.657Z,732.6
2015-10-20T01:11:51.860Z,732.54
2015-10-20T01:12:05.064Z,732.58
2015-10-20T01:12:18.129Z,732.55
2015-10-20T01:12:31.332Z,732.54
2015-10-20T01:12:44.567Z,732.56
2015-10-20T01:12:57.785Z,732.57
2015-10-20T01:13:11.006Z,732.56
2015-10-20T01:13:24.240Z,732.56
2015-10-20T01:13:37.475Z,732.56
2015-10-20T01:13:50.694Z,732.53
2015-10-20T01:14:03.897Z,732.58
2015-10-20T01:14:17.103Z,732.59
2015-10-20T01:14:30.322Z,732.57
2015-10-20T01:14:43.525Z,732.56
2015-10-20T01:14:56.712Z,732.54
2015-10-20T01:15:09.918Z,732.56
2015-10-20T01:15:23.153Z,732.56
2015-10-20T01:15:36.371Z,732.55
2015-10-20T01:15:49.590Z,732.54
2015-10-20T01:16:02.809Z,732.57
2015-10-20T01:16:15.906Z,732.56
2015-10-20T01:16:29.140Z,732.54
2015-10-20T01:16:42.390Z,732.52
2015-10-20T01:16:55.640Z,732.54
2015-10-20T01:17:08.890Z,732.53
2015-10-20T01:17:22.096Z,732.52
2015-10-20T01:17:35.299Z,732.6
2015-10-20T01:17:48.502Z,732.57
2015-10-20T01:18:01.721Z,732.54
2015-10-20T01:18:14.926Z,732.5
2015-10-20T01:18:28.114Z,732.52
2015-10-20T01:18:41.333Z,732.53
2015-10-20T01:18:54.520Z,732.52
2015-10-20T01:19:07.723Z,732.51
2015-10-20T01:19:20.945Z,732.5
2015-10-20T01:19:34.148Z,732.53
2015-10-20T01:19:47.367Z,732.51
2015-10-20T01:20:00.601Z,732.5
2015-10-20T01:20:13.823Z,732.53
2015-10-20T01:20:27.057Z,732.54
2015-10-20T01:20:40.292Z,732.53
2015-10-20T01:20:53.542Z,732.5
2015-10-20T01:21:06.760Z,732.54
2015-10-20T01:21:19.967Z,732.55
2015-10-20T01:21:33.013Z,732.49
2015-10-20T01:21:46.217Z,732.51
2015-10-20T01:21:59.420Z,732.51
2015-10-20T01:22:12.623Z,732.53
2015-10-20T01:22:25.829Z,732.55
2015-10-20T01:22:39.032Z,732.54
2015-10-20T01:22:52.235Z,732.51
2015-10-20T01:23:05.438Z,732.57
2015-10-20T01:23:18.643Z,732.53
2015-10-20T01:23:31.862Z,732.57
2015-10-20T01:23:45.128Z,732.54
2015-10-20T01:23:58.347Z,732.55
2015-10-20T01:24:11.597Z,732.55
2015-10-20T01:24:24.833Z,732.55
2015-10-20T01:24:38.083Z,732.56
2015-10-20T01:24:51.177Z,732.53
2015-10-20T01:25:04.395Z,732.54
2015-10-20T01:25:17.586Z,732.58
2015-10-20T01:25:30.758Z,732.53
2015-10-20T01:25:43.945Z,732.53
2015-10-20T01:25:57.133Z,732.56
2015-10-20T01:26:10.352Z,732.51
2015-10-20T01:26:23.542Z,732.48
2015-10-20T01:26:36.761Z,732.53
2015-10-20T01:26:49.964Z,732.53
2015-10-20T01:27:03.167Z,732.55
2015-10-20T01:27:16.373Z,732.49
2015-10-20T01:27:29.436Z,732.51
2015-10-20T01:27:42.654Z,732.52
2015-10-20T01:27:55.873Z,732.5
2015-10-20T01:28:09.108Z,732.52
2015-10-20T01:28:22.361Z,732.55
2015-10-20T01:28:35.611Z,732.49
2015-10-20T01:28:48.861Z,732.55
2015-10-20T01:29:02.095Z,732.53
2015-10-20T01:29:15.298Z,732.51
2015-10-20T01:29:28.504Z,732.5
2015-10-20T01:29:41.707Z,732.47
2015-10-20T01:29:54.910Z,732.49
2015-10-20T01:30:08.114Z,732.51
2015-10-20T01:30:21.303Z,732.5
2015-10-20T01:30:34.537Z,732.5
2015-10-20T01:30:47.756Z,732.48
2015-10-20T01:31:00.975Z,732.49
2015-10-20T01:31:14.209Z,732.49
2015-10-20T01:31:27.447Z,732.47
2015-10-20T01:31:40.697Z,732.45
2015-10-20T01:31:53.962Z,732.43
2015-10-20T01:32:07.165Z,732.47
2015-10-20T01:32:20.371Z,732.45
2015-10-20T01:32:33.558Z,732.46
2015-10-20T01:32:46.777Z,732.47
2015-10-20T01:32:59.964Z,732.47
2015-10-20T01:33:13.183Z,732.51
2015-10-20T01:33:26.389Z,732.5
2015-10-20T01:33:39.592Z,732.5
2015-10-20T01:33:52.795Z,732.49
2015-10-20T01:34:05.999Z,732.5
2015-10-20T01:34:19.202Z,732.51
2015-10-20T01:34:32.423Z,732.57
2015-10-20T01:34:45.642Z,732.52
2015-10-20T01:34:58.861Z,732.56
2015-10-20T01:35:12.111Z,732.55
2015-10-20T01:35:25.300Z,732.55
2015-10-20T01:35:38.504Z,732.51
2015-10-20T01:35:51.707Z,732.56
2015-10-20T01:36:04.910Z,732.56
2015-10-20T01:36:18.113Z,732.57
2015-10-20T01:36:31.319Z,732.6
2015-10-20T01:36:44.522Z,732.56
2015-10-20T01:36:57.741Z,732.59
2015-10-20T01:37:10.960Z,732.58
2015-10-20T01:37:24.181Z,732.59
2015-10-20T01:37:37.431Z,732.59
2015-10-20T01:37:50.681Z,732.56
2015-10-20T01:38:03.916Z,732.53
2015-10-20T01:38:17.135Z,732.61
2015-10-20T01:38:30.340Z,732.59
2015-10-20T01:38:43.543Z,732.59
2015-10-20T01:38:56.746Z,732.58
2015-10-20T01:39:09.965Z,732.6
2015-10-20T01:39:23.152Z,732.58
2015-10-20T01:39:36.390Z,732.61
2015-10-20T01:39:49.608Z,732.6
2015-10-20T01:40:02.811Z,732.57
2015-10-20T01:40:16.015Z,732.59
2015-10-20T01:40:29.236Z,732.56
2015-10-20T01:40:42.439Z,732.59
2015-10-20T01:40:55.658Z,732.59
2015-10-20T01:41:08.877Z,732.59
2015-10-20T01:41:22.127Z,732.57
2015-10-20T01:41:35.380Z,732.59
2015-10-20T01:41:48.630Z,732.57
2015-10-20T01:42:01.864Z,732.57
2015-10-20T01:42:15.067Z,732.56
2015-10-20T01:42:28.273Z,732.56
2015-10-20T01:42:41.476Z,732.57
2015-10-20T01:42:54.679Z,732.57
2015-10-20T01:43:07.882Z,732.55
2015-10-20T01:43:21.085Z,732.55
2015-10-20T01:43:34.307Z,732.56
2015-10-20T01:43:47.510Z,732.55
2015-10-20T01:44:00.713Z,732.55
2015-10-20T01:44:13.916Z,732.57
2015-10-20T01:44:27.135Z,732.56
2015-10-20T01:44:40.357Z,732.55
2015-10-20T01:44:53.575Z,732.57
2015-10-20T01:45:06.810Z,732.58
2015-10-20T01:45:20.060Z,732.54
2015-10-20T01:45:33.297Z,732.49
2015-10-20T01:45:46.563Z,732.55
2015-10-20T01:45:59.797Z,732.54
2015-10-20T01:46:13.078Z,732.5
2015-10-20T01:46:26.282Z,732.49
2015-10-20T01:46:39.488Z,732.54
2015-10-20T01:46:52.691Z,732.51
2015-10-20T01:47:05.894Z,732.55
2015-10-20T01:47:19.097Z,732.52
2015-10-20T01:47:32.318Z,732.52
2015-10-20T01:47:45.521Z,732.54
2015-10-20T01:47:58.755Z,732.55
2015-10-20T01:48:11.974Z,732.5
2015-10-20T01:48:25.193Z,732.54
2015-10-20T01:48:38.445Z,732.56
2015-10-20T01:48:51.679Z,732.53
2015-10-20T01:49:04.898Z,732.5
2015-10-20T01:49:18.101Z,732.46
2015-10-20T01:49:31.304Z,732.51
2015-10-20T01:49:44.510Z,732.51
2015-10-20T01:49:57.729Z,732.46
2015-10-20T01:50:10.932Z,732.47
2015-10-20T01:50:24.135Z,732.45
2015-10-20T01:50:37.357Z,732.48
2015-10-20T01:50:50.591Z,732.5
2015-10-20T01:51:03.841Z,732.52
2015-10-20T01:51:17.060Z,732.53
2015-10-20T01:51:30.310Z,732.53
2015-10-20T01:51:43.532Z,732.51
2015-10-20T01:51:56.735Z,732.52
2015-10-20T01:52:09.938Z,732.56
2015-10-20T01:52:23.141Z,732.55
2015-10-20T01:52:36.347Z,732.53
2015-10-20T01:52:49.551Z,732.57
2015-10-20T01:53:02.754Z,732.57
2015-10-20T01:53:15.972Z,732.58
2015-10-20T01:53:29.191Z,732.54
2015-10-20T01:53:42.412Z,732.59
2015-10-20T01:53:55.631Z,732.55
2015-10-20T01:54:08.881Z,732.58
2015-10-20T01:54:22.146Z,732.59
2015-10-20T01:54:35.349Z,732.61
2015-10-20T01:54:48.556Z,732.58
2015-10-20T01:55:01.759Z,732.6
2015-10-20T01:55:14.962Z,732.58
2015-10-20T01:55:28.165Z,732.61
2015-10-20T01:55:41.402Z,732.59
2015-10-20T01:55:54.605Z,732.61
2015-10-20T01:56:07.809Z,732.6
2015-10-20T01:56:21.012Z,732.6
2015-10-20T01:56:34.230Z,732.57
2015-10-20T01:56:47.312Z,732.56
2015-10-20T01:57:00.530Z,732.58
2015-10-20T01:57:13.733Z,732.59
2015-10-20T01:57:26.952Z,732.56
2015-10-20T01:57:40.610Z,732.6
2015-10-20T01:57:53.845Z,732.56
2015-10-20T01:58:07.079Z,732.58
2015-10-20T01:58:20.282Z,732.52
2015-10-20T01:58:33.485Z,732.55
2015-10-20T01:58:46.692Z,732.51
2015-10-20T01:58:59.957Z,732.52
2015-10-20T01:59:13.160Z,732.56
2015-10-20T01:59:26.363Z,732.53
2015-10-20T01:59:39.567Z,732.54
2015-10-20T01:59:52.773Z,732.53
2015-10-20T02:00:05.991Z,732.54
2015-10-20T02:00:19.210Z,732.49
2015-10-20T02:00:32.429Z,732.5
2015-10-20T02:00:45.635Z,732.5
2015-10-20T02:00:58.854Z,732.5
2015-10-20T02:01:12.088Z,732.55
2015-10-20T02:01:25.338Z,732.52
2015-10-20T02:01:38.557Z,732.5
2015-10-20T02:01:51.763Z,732.52
2015-10-20T02:02:04.966Z,732.49
2015-10-20T02:02:18.154Z,732.53
2015-10-20T02:02:31.341Z,732.5
2015-10-20T02:02:44.546Z,732.5
2015-10-20T02:02:57.734Z,732.51
2015-10-20T02:03:10.937Z,732.5
2015-10-20T02:03:24.124Z,732.45
2015-10-20T02:03:37.359Z,732.49
2015-10-20T02:03:50.565Z,732.51
2015-10-20T02:04:03.799Z,732.51
2015-10-20T02:04:17.018Z,732.49
2015-10-20T02:04:30.237Z,732.49
2015-10-20T02:04:43.471Z,732.46
2015-10-20T02:04:56.723Z,732.48
2015-10-20T02:05:09.973Z,732.5
2015-10-20T02:05:23.192Z,732.44
2015-10-20T02:05:36.395Z,732.42
2015-10-20T02:05:49.601Z,732.47
2015-10-20T02:06:02.804Z,732.43
2015-10-20T02:06:16.007Z,732.47
2015-10-20T02:06:29.211Z,732.47
2015-10-20T02:06:42.398Z,732.43
2015-10-20T02:06:55.620Z,732.45
2015-10-20T02:07:08.823Z,732.45
2015-10-20T02:07:22.026Z,732.45
2015-10-20T02:07:35.245Z,732.46
2015-10-20T02:07:48.467Z,732.45
2015-10-20T02:08:01.685Z,732.48
2015-10-20T02:08:14.748Z,732.52
2015-10-20T02:08:27.998Z,732.5
2015-10-20T02:08:41.232Z,732.47
2015-10-20T02:08:54.469Z,732.47
2015-10-20T02:09:07.672Z,732.46
2015-10-20T02:09:20.875Z,732.47
2015-10-20T02:09:34.078Z,732.48
2015-10-20T02:09:47.297Z,732.49
2015-10-20T02:10:00.518Z,732.49
2015-10-20T02:10:13.722Z,732.49
2015-10-20T02:10:26.940Z,732.49
2015-10-20T02:10:40.143Z,732.45
2015-10-20T02:10:53.350Z,732.5
2015-10-20T02:11:06.553Z,732.45
2015-10-20T02:11:19.771Z,732.49
2015-10-20T02:11:33.006Z,732.46
2015-10-20T02:11:46.225Z,732.47
2015-10-20T02:11:59.462Z,732.49
2015-10-20T02:12:12.712Z,732.45
2015-10-20T02:12:25.978Z,732.44
2015-10-20T02:12:39.165Z,732.49
2015-10-20T02:12:52.370Z,732.46
2015-10-20T02:13:05.573Z,732.47
2015-10-20T02:13:18.776Z,732.47
2015-10-20T02:13:31.980Z,732.46
2015-10-20T02:13:45.198Z,732.5
2015-10-20T02:13:58.389Z,732.47
2015-10-20T02:14:11.608Z,732.5
2015-10-20T02:14:24.811Z,732.47
2015-10-20T02:14:37.998Z,732.5
2015-10-20T02:14:51.217Z,732.55
2015-10-20T02:15:04.454Z,732.53
2015-10-20T02:15:17.673Z,732.54
2015-10-20T02:15:30.907Z,732.54
2015-10-20T02:15:44.157Z,732.54
2015-10-20T02:15:57.394Z,732.58
2015-10-20T02:16:10.628Z,732.56
2015-10-20T02:16:23.831Z,732.55
2015-10-20T02:16:37.034Z,732.57
2015-10-20T02:16:50.238Z,732.59
2015-10-20T02:17:03.459Z,732.59
2015-10-20T02:17:16.647Z,732.57
2015-10-20T02:17:29.850Z,732.56
2015-10-20T02:17:43.053Z,732.57
2015-10-20T02:17:56.247Z,732.55
2015-10-20T02:18:09.450Z,732.54
2015-10-20T02:18:22.653Z,732.53
2015-10-20T02:18:35.872Z,732.56
2015-10-20T02:18:49.107Z,732.54
2015-10-20T02:19:02.299Z,732.52
2015-10-20T02:19:15.517Z,732.52
2015-10-20T02:19:28.799Z,732.51
2015-10-20T02:19:42.017Z,732.55
2015-10-20T02:19:55.205Z,732.51
2015-10-20T02:20:08.397Z,732.55
2015-10-20T02:20:21.600Z,732.53
2015-10-20T02:20:34.819Z,732.54
2015-10-20T02:20:48.022Z,732.53
2015-10-20T02:21:01.212Z,732.6
2015-10-20T02:21:14.415Z,732.55
2015-10-20T02:21:27.650Z,732.53
2015-10-20T02:21:40.868Z,732.58
2015-10-20T02:21:54.087Z,732.57
2015-10-20T02:22:07.326Z,732.58
2015-10-20T02:22:20.576Z,732.57
2015-10-20T02:22:33.826Z,732.59
2015-10-20T02:22:47.061Z,732.57
2015-10-20T02:23:00.260Z,732.54
2015-10-20T02:23:13.463Z,732.54
2015-10-20T02:23:26.666Z,732.56
2015-10-20T02:23:39.885Z,732.55
2015-10-20T02:23:53.088Z,732.53
2015-10-20T02:24:06.289Z,732.51
2015-10-20T02:24:19.508Z,732.53
2015-10-20T02:24:32.726Z,732.54
2015-10-20T02:24:45.930Z,732.51
2015-10-20T02:24:59.133Z,732.51
2015-10-20T02:25:12.349Z,732.49
2015-10-20T02:25:25.584Z,732.51
2015-10-20T02:25:38.803Z,732.51
2015-10-20T02:25:52.021Z,732.53
2015-10-20T02:26:05.268Z,732.54
2015-10-20T02:26:18.518Z,732.57
2015-10-20T02:26:31.768Z,732.58
2015-10-20T02:26:44.987Z,732.57
2015-10-20T02:26:58.190Z,732.56
2015-10-20T02:27:11.390Z,732.56
2015-10-20T02:27:24.593Z,732.55
2015-10-20T02:27:37.828Z,732.61
2015-10-20T02:27:51.031Z,732.6
2015-10-20T02:28:04.236Z,732.57
2015-10-20T02:28:17.439Z,732.59
2015-10-20T02:28:30.642Z,732.58
2015-10-20T02:28:43.845Z,732.57
2015-10-20T02:28:57.049Z,732.59
2015-10-20T02:29:10.299Z,732.58
2015-10-20T02:29:23.517Z,732.6
2015-10-20T02:29:36.752Z,732.58
2015-10-20T02:29:49.970Z,732.59
2015-10-20T02:30:03.220Z,732.59
2015-10-20T02:30:16.487Z,732.58
2015-10-20T02:30:29.721Z,732.59
2015-10-20T02:30:42.956Z,732.58
2015-10-20T02:30:56.159Z,732.53
2015-10-20T02:31:09.363Z,732.56
2015-10-20T02:31:22.566Z,732.57
2015-10-20T02:31:35.785Z,732.55
2015-10-20T02:31:48.972Z,732.56
2015-10-20T02:32:02.191Z,732.59
2015-10-20T02:32:15.394Z,732.58
2015-10-20T02:32:28.582Z,732.58
2015-10-20T02:32:41.785Z,732.61
2015-10-20T02:32:54.988Z,732.61
2015-10-20T02:33:08.210Z,732.57
2015-10-20T02:33:21.429Z,732.62
2015-10-20T02:33:34.647Z,732.59
2015-10-20T02:33:47.882Z,732.57
2015-10-20T02:34:01.116Z,732.64
2015-10-20T02:34:14.367Z,732.59
2015-10-20T02:34:27.648Z,732.59
2015-10-20T02:34:40.867Z,732.58
2015-10-20T02:34:54.070Z,732.59
2015-10-20T02:35:07.273Z,732.56
2015-10-20T02:35:20.478Z,732.57
2015-10-20T02:35:33.697Z,732.55
2015-10-20T02:35:46.900Z,732.55
2015-10-20T02:36:00.103Z,732.55
2015-10-20T02:36:13.293Z,732.56
2015-10-20T02:36:26.496Z,732.57
2015-10-20T02:36:39.699Z,732.56
2015-10-20T02:36:52.902Z,732.53
2015-10-20T02:37:06.121Z,732.55
2015-10-20T02:37:19.357Z,732.59
2015-10-20T02:37:32.576Z,732.52
2015-10-20T02:37:45.811Z,732.54
2015-10-20T02:37:59.045Z,732.53
2015-10-20T02:38:12.282Z,732.58
2015-10-20T02:38:25.485Z,732.55
2015-10-20T02:38:38.689Z,732.55
2015-10-20T02:38:51.735Z,732.55
2015-10-20T02:39:04.939Z,732.55
2015-10-20T02:39:18.145Z,732.54
2015-10-20T02:39:31.348Z,732.54
2015-10-20T02:39:44.582Z,732.53
2015-10-20T02:39:57.801Z,732.54
2015-10-20T02:40:11.004Z,732.56
2015-10-20T02:40:24.209Z,732.57
2015-10-20T02:40:37.444Z,732.56
2015-10-20T02:40:50.631Z,732.58
2015-10-20T02:41:03.819Z,732.57
2015-10-20T02:41:17.009Z,732.57
2015-10-20T02:41:30.197Z,732.56
2015-10-20T02:41:43.415Z,732.58
2015-10-20T02:41:56.603Z,732.54
2015-10-20T02:42:09.806Z,732.59
2015-10-20T02:42:23.043Z,732.54
2015-10-20T02:42:36.246Z,732.55
2015-10-20T02:42:49.481Z,732.58
2015-10-20T02:43:02.700Z,732.56
2015-10-20T02:43:15.952Z,732.55
2015-10-20T02:43:29.248Z,732.53
2015-10-20T02:43:42.467Z,732.58
2015-10-20T02:43:55.717Z,732.53
2015-10-20T02:44:08.920Z,732.61
2015-10-20T02:44:22.142Z,732.56
2015-10-20T02:44:35.345Z,732.57
2015-10-20T02:44:48.564Z,732.57
2015-10-20T02:45:01.767Z,732.57
2015-10-20T02:45:14.972Z,732.55